Time;durP1;ratioP1;P1;durP2;ratioP2;P2;SDS_P1;SDS_P2;PMS_P1;PMS_P2;Temp;Humidity;BMP_temperature;BMP_pressure;BME280_temperature;BME280_humidity;BME280_pressure;Samples;Min_cycle;Max_cycle;Signal;HPM_P1;HPM_P2
2023/01/04 00:01:09;;;;;;;50.20;31.77;;;5.10;66.70;;;;;;6109960;23;114409;-82
2023/01/04 00:03:37;;;;;;;51.05;33.70;;;5.10;66.80;;;;;;6083934;23;116326;-82
2023/01/04 00:06:06;;;;;;;61.50;38.60;;;5.00;66.60;;;;;;6110014;22;114718;-83
2023/01/04 00:08:33;;;;;;;61.50;37.90;;;5.10;66.50;;;;;;6110111;23;114378;-83
2023/01/04 00:11:07;;;;;;;59.00;37.45;;;5.00;66.40;;;;;;6086892;23;114592;-83
2023/01/04 00:13:37;;;;;;;62.05;38.65;;;5.00;66.30;;;;;;6111065;23;115119;-83
2023/01/04 00:16:10;;;;;;;58.22;36.42;;;4.90;66.40;;;;;;6084097;23;117757;-82
2023/01/04 00:18:37;;;;;;;60.50;36.67;;;4.90;66.40;;;;;;6110283;23;114697;-82
2023/01/04 00:21:15;;;;;;;59.22;36.95;;;4.90;66.40;;;;;;6086515;23;114468;-83
2023/01/04 00:23:43;;;;;;;62.10;36.08;;;4.90;66.40;;;;;;6060385;23;118023;-83
2023/01/04 00:26:25;;;;;;;64.55;38.05;;;4.80;66.30;;;;;;6108881;23;114652;-82
2023/01/04 00:28:58;;;;;;;64.22;39.85;;;4.80;66.30;;;;;;6111980;23;114523;-82
2023/01/04 00:31:26;;;;;;;61.28;37.65;;;4.70;66.30;;;;;;6083421;23;115248;-83
2023/01/04 00:33:55;;;;;;;61.35;36.90;;;4.70;66.40;;;;;;6118508;23;114592;-84
2023/01/04 00:36:23;;;;;;;52.80;32.53;;;4.70;66.40;;;;;;6109982;23;114531;-83
2023/01/04 00:39:09;;;;;;;54.42;32.85;;;4.70;66.50;;;;;;6111216;23;115023;-83
2023/01/04 00:41:44;;;;;;;48.03;26.20;;;4.70;66.50;;;;;;6090538;23;114386;-84
2023/01/04 00:44:28;;;;;;;41.25;24.55;;;4.70;66.80;;;;;;6089653;23;115562;-82
2023/01/04 00:46:56;;;;;;;36.47;22.98;;;4.70;67.00;;;;;;6111769;23;115134;-83
2023/01/04 00:49:24;;;;;;;32.45;22.30;;;4.60;67.00;;;;;;6061615;23;116313;-82
2023/01/04 00:51:51;;;;;;;35.50;22.67;;;4.70;67.20;;;;;;6086248;23;114398;-83
2023/01/04 00:54:19;;;;;;;39.00;23.08;;;4.70;67.20;;;;;;6108801;23;115113;-82
2023/01/04 00:56:46;;;;;;;39.83;21.98;;;4.70;67.10;;;;;;6085288;23;115246;-84
2023/01/04 00:59:15;;;;;;;37.72;22.83;;;4.70;67.30;;;;;;6062061;23;114751;-83
2023/01/04 01:01:45;;;;;;;40.63;21.25;;;4.70;67.20;;;;;;6037537;23;114453;-83
2023/01/04 01:04:15;;;;;;;35.38;21.88;;;4.70;67.20;;;;;;6036439;23;115391;-84
2023/01/04 01:06:44;;;;;;;37.72;21.45;;;4.70;67.40;;;;;;6084888;23;114817;-84
2023/01/04 01:09:11;;;;;;;42.38;24.35;;;4.70;67.30;;;;;;6110762;23;114434;-85
2023/01/04 01:11:46;;;;;;;36.15;22.40;;;4.70;67.40;;;;;;6087120;23;115019;-84
2023/01/04 01:14:17;;;;;;;37.40;22.48;;;4.80;67.30;;;;;;6111053;23;115342;-84
2023/01/04 01:16:44;;;;;;;35.13;21.52;;;4.80;67.20;;;;;;6085490;23;114597;-85
2023/01/04 01:19:25;;;;;;;38.55;20.88;;;4.80;67.40;;;;;;6062881;23;114624;-83
2023/01/04 01:21:53;;;;;;;42.03;22.80;;;4.80;67.40;;;;;;6110413;23;116291;-83
2023/01/04 01:24:23;;;;;;;32.22;19.20;;;4.70;67.20;;;;;;6084607;23;115750;-83
2023/01/04 01:26:50;;;;;;;32.45;20.45;;;4.80;67.00;;;;;;6084606;23;114661;-83
2023/01/04 01:29:18;;;;;;;32.80;19.85;;;4.70;66.90;;;;;;6110004;23;114927;-83
2023/01/04 01:31:45;;;;;;;27.63;16.40;;;4.70;67.00;;;;;;6110258;23;114420;-83
2023/01/04 01:34:12;;;;;;;28.48;17.20;;;4.70;66.90;;;;;;6110837;23;115138;-83
2023/01/04 01:36:39;;;;;;;27.02;15.50;;;4.60;66.90;;;;;;6109187;23;116460;-84
2023/01/04 01:39:07;;;;;;;25.58;16.17;;;4.60;66.70;;;;;;6111791;22;116833;-82
2023/01/04 01:41:34;;;;;;;25.67;16.05;;;4.60;67.00;;;;;;6111445;23;114300;-83
2023/01/04 01:44:41;;;;;;;24.35;14.75;;;4.60;67.00;;;;;;6084263;23;115522;-83
2023/01/04 01:47:17;;;;;;;25.45;15.50;;;4.60;66.90;;;;;;6111259;22;115154;-84
2023/01/04 01:49:50;;;;;;;23.48;14.18;;;4.50;66.80;;;;;;6110294;23;115107;-83
2023/01/04 01:52:32;;;;;;;21.55;13.85;;;4.40;66.90;;;;;;6111702;23;114455;-82
2023/01/04 01:55:02;;;;;;;26.70;14.07;;;4.50;66.60;;;;;;6085879;23;115730;-83
2023/01/04 01:57:31;;;;;;;23.80;13.43;;;4.40;66.80;;;;;;6084944;23;115190;-82
2023/01/04 02:00:11;;;;;;;24.25;13.02;;;4.40;66.60;;;;;;6111583;23;114412;-82
2023/01/04 02:03:14;;;;;;;25.50;14.80;;;4.30;66.50;;;;;;6087605;23;114406;-82
2023/01/04 02:05:42;;;;;;;22.70;14.43;;;4.30;66.40;;;;;;6057599;23;115056;-83
2023/01/04 02:08:09;;;;;;;23.60;14.57;;;4.20;66.70;;;;;;6084034;23;114658;-83
2023/01/04 02:10:36;;;;;;;26.40;15.45;;;4.20;66.80;;;;;;6085323;23;115787;-84
2023/01/04 02:14:25;;;;;;;25.45;14.25;;;4.20;67.00;;;;;;6111525;23;115434;-83
2023/01/04 02:16:16;;;;;;;27.25;15.48;;;4.20;67.00;;;;;;6094217;23;116274;-83
2023/01/04 02:19:21;;;;;;;27.65;15.45;;;4.10;67.30;;;;;;6131611;23;114995;-83
2023/01/04 02:22:33;;;;;;;27.88;15.23;;;4.20;67.30;;;;;;6063804;23;114589;-84
2023/01/04 02:25:41;;;;;;;27.30;15.13;;;4.20;67.30;;;;;;6110398;23;114803;-84
2023/01/04 02:28:34;;;;;;;24.90;14.55;;;4.10;67.30;;;;;;6110536;23;115611;-85
2023/01/04 02:31:36;;;;;;;24.45;14.35;;;4.10;67.30;;;;;;6088876;23;116940;-85
2023/01/04 02:34:29;;;;;;;28.02;14.70;;;4.10;67.20;;;;;;6110053;23;114439;-85
2023/01/04 02:37:25;;;;;;;26.67;15.05;;;4.00;67.20;;;;;;6110764;23;114394;-85
2023/01/04 02:40:11;;;;;;;29.33;14.82;;;4.00;67.20;;;;;;6088364;23;115757;-84
2023/01/04 02:46:28;;;;;;;27.58;16.40;;;3.90;67.10;;;;;;6038482;23;114701;-83
2023/01/04 02:51:49;;;;;;;29.35;17.05;;;3.80;67.40;;;;;;6111643;23;115351;-83
2023/01/04 02:54:20;;;;;;;25.85;16.15;;;3.80;67.40;;;;;;6109831;23;117175;-83
2023/01/04 02:57:09;;;;;;;26.52;16.90;;;3.80;67.60;;;;;;6063313;23;114839;-84
2023/01/04 03:00:10;;;;;;;25.63;16.17;;;3.80;67.50;;;;;;6113094;23;114510;-83
2023/01/04 03:06:15;;;;;;;27.17;16.48;;;3.80;67.30;;;;;;6089213;23;114768;-83
2023/01/04 03:08:47;;;;;;;26.13;15.70;;;3.80;67.60;;;;;;6110179;23;114958;-82
2023/01/04 03:14:25;;;;;;;28.35;17.30;;;3.80;67.50;;;;;;6068649;23;115753;-83
2023/01/04 03:17:07;;;;;;;29.45;17.08;;;3.80;67.30;;;;;;6043327;23;115465;-82
2023/01/04 03:19:50;;;;;;;26.67;16.75;;;3.80;67.30;;;;;;6112273;23;114322;-83
2023/01/04 03:37:40;;;;;;;25.85;16.52;;;3.70;67.50;;;;;;6067331;23;115441;-83
2023/01/04 03:49:30;;;;;;;27.35;16.42;;;3.50;67.30;;;;;;6072363;23;116681;-83
2023/01/04 03:52:01;;;;;;;25.27;15.77;;;3.50;67.40;;;;;;6110696;23;114651;-83
2023/01/04 03:54:35;;;;;;;25.23;15.48;;;3.40;67.30;;;;;;6086224;23;115810;-83
2023/01/04 03:57:03;;;;;;;25.02;14.52;;;3.40;67.50;;;;;;6063221;23;114798;-82
2023/01/04 03:59:30;;;;;;;26.92;15.88;;;3.40;67.50;;;;;;6060997;23;117079;-83
2023/01/04 04:02:18;;;;;;;25.02;16.20;;;3.40;67.60;;;;;;6085924;23;114629;-83
2023/01/04 04:10:19;;;;;;;23.58;15.05;;;3.30;67.60;;;;;;6111165;23;115267;-83
2023/01/04 04:12:47;;;;;;;24.23;14.82;;;3.30;67.60;;;;;;6109435;23;114561;-84
2023/01/04 04:15:15;;;;;;;24.60;14.82;;;3.30;67.60;;;;;;6111304;23;114586;-83
2023/01/04 04:17:42;;;;;;;25.75;15.95;;;3.30;67.70;;;;;;6112712;23;114314;-83
2023/01/04 04:20:11;;;;;;;27.13;16.10;;;3.30;67.50;;;;;;6110816;23;115840;-83
2023/01/04 04:22:39;;;;;;;23.40;14.25;;;3.30;67.80;;;;;;6061419;23;114757;-83
2023/01/04 04:25:07;;;;;;;23.90;14.43;;;3.30;67.70;;;;;;6085700;23;114580;-83
2023/01/04 04:27:34;;;;;;;25.02;15.90;;;3.30;67.60;;;;;;6110476;23;114579;-82
2023/01/04 04:30:01;;;;;;;26.73;15.48;;;3.30;67.50;;;;;;6110210;23;115737;-82
2023/01/04 04:32:30;;;;;;;25.52;15.13;;;3.30;67.50;;;;;;6109444;23;115825;-82
2023/01/04 04:34:57;;;;;;;25.00;15.32;;;3.30;67.60;;;;;;6086217;23;114623;-83
2023/01/04 04:37:25;;;;;;;27.95;15.57;;;3.30;67.70;;;;;;6110137;23;114642;-82
2023/01/04 04:39:53;;;;;;;24.73;15.32;;;3.30;67.50;;;;;;6109260;23;115558;-83
2023/01/04 04:42:20;;;;;;;24.38;15.32;;;3.20;67.50;;;;;;6110711;22;114654;-82
2023/01/04 04:44:47;;;;;;;26.65;15.80;;;3.30;67.50;;;;;;6110505;23;114721;-83
2023/01/04 04:47:14;;;;;;;23.98;14.57;;;3.20;67.40;;;;;;6112127;22;114382;-83
2023/01/04 04:49:41;;;;;;;24.73;14.55;;;3.10;67.50;;;;;;6110403;23;115048;-82
2023/01/04 04:52:09;;;;;;;26.85;15.00;;;3.20;67.50;;;;;;6109439;23;115111;-83
2023/01/04 04:54:36;;;;;;;26.90;15.38;;;3.10;67.70;;;;;;6109505;23;114661;-83
2023/01/04 04:57:03;;;;;;;26.25;16.02;;;3.10;67.80;;;;;;6085458;23;115579;-83
2023/01/04 04:59:35;;;;;;;26.13;14.98;;;3.00;67.80;;;;;;6085290;23;115011;-83
2023/01/04 05:02:02;;;;;;;24.38;14.48;;;3.10;67.90;;;;;;6110386;23;116396;-84
2023/01/04 05:04:29;;;;;;;22.30;13.85;;;3.10;67.80;;;;;;6109301;23;114456;-84
2023/01/04 05:06:57;;;;;;;25.15;15.25;;;3.10;67.90;;;;;;6111057;22;114502;-84
2023/01/04 05:09:24;;;;;;;26.65;16.20;;;3.00;67.90;;;;;;6108867;23;115341;-83
2023/01/04 05:14:37;;;;;;;28.17;16.73;;;2.90;68.00;;;;;;6069004;23;114818;-84
2023/01/04 05:17:04;;;;;;;29.58;16.02;;;2.90;68.00;;;;;;6111119;23;114237;-83
2023/01/04 05:19:34;;;;;;;23.75;14.75;;;2.90;68.10;;;;;;6109689;23;117215;-82
2023/01/04 05:22:03;;;;;;;24.17;13.57;;;2.80;68.20;;;;;;6110553;22;114643;-84
2023/01/04 05:24:30;;;;;;;26.67;16.48;;;2.80;68.20;;;;;;6085593;23;114643;-84
2023/01/04 05:26:57;;;;;;;23.55;14.35;;;2.80;68.30;;;;;;6110346;23;114580;-83
2023/01/04 05:32:13;;;;;;;24.67;14.73;;;2.80;68.40;;;;;;6105598;23;115639;-86
2023/01/04 05:34:40;;;;;;;25.52;14.75;;;2.80;68.40;;;;;;6109071;23;114568;-84
2023/01/04 05:37:08;;;;;;;23.73;13.45;;;2.80;68.20;;;;;;6109394;23;115141;-84
2023/01/04 05:39:35;;;;;;;23.20;14.82;;;2.70;68.30;;;;;;6083607;23;115532;-83
2023/01/04 05:44:52;;;;;;;22.90;13.43;;;2.70;68.40;;;;;;6107824;23;114435;-84
2023/01/04 05:47:27;;;;;;;22.73;13.23;;;2.80;68.50;;;;;;6061893;23;115006;-84
2023/01/04 05:49:55;;;;;;;;;;;2.70;68.50;;;;;;6062141;23;115459;-84
2023/01/04 05:52:23;;;;;;;20.50;12.27;;;2.70;68.30;;;;;;6075368;23;114834;-84
2023/01/04 05:54:50;;;;;;;19.40;12.73;;;2.70;68.60;;;;;;6059583;23;114465;-85
2023/01/04 05:57:18;;;;;;;22.23;13.45;;;2.70;68.60;;;;;;6108542;23;114667;-81
2023/01/04 05:59:45;;;;;;;24.40;12.75;;;2.70;68.60;;;;;;6082527;23;115078;-82
2023/01/04 06:02:19;;;;;;;23.65;12.10;;;2.60;68.50;;;;;;6057647;23;115395;-83
2023/01/04 06:04:47;;;;;;;19.45;12.35;;;2.60;68.70;;;;;;6059477;23;114711;-82
2023/01/04 06:07:21;;;;;;;23.02;13.05;;;2.60;68.80;;;;;;6060443;23;114820;-84
2023/01/04 06:09:48;;;;;;;20.05;12.05;;;2.60;68.80;;;;;;6106681;23;115594;-83
2023/01/04 06:12:16;;;;;;;21.33;12.38;;;2.60;68.70;;;;;;6032869;23;117292;-83
2023/01/04 06:14:43;;;;;;;24.70;13.80;;;2.70;68.70;;;;;;6108285;23;114542;-84
2023/01/04 06:17:11;;;;;;;20.73;11.85;;;2.60;68.80;;;;;;6111343;23;115705;-83
2023/01/04 06:19:39;;;;;;;21.58;11.65;;;2.60;68.90;;;;;;6110204;23;115113;-83
2023/01/04 06:22:10;;;;;;;18.88;11.55;;;2.60;69.00;;;;;;6086036;23;117368;-84
2023/01/04 06:24:37;;;;;;;17.83;10.82;;;2.70;69.00;;;;;;6086742;23;115193;-84
2023/01/04 06:27:12;;;;;;;16.38;11.02;;;2.70;68.90;;;;;;6112495;23;114538;-82
2023/01/04 06:29:39;;;;;;;;;;;2.70;69.40;;;;;;6088587;23;115095;-84
2023/01/04 06:32:07;;;;;;;17.70;11.25;;;2.70;69.10;;;;;;6113293;23;114491;-84
2023/01/04 06:34:34;;;;;;;17.98;10.93;;;2.70;69.00;;;;;;6087520;23;114572;-83
2023/01/04 06:37:01;;;;;;;17.45;11.52;;;2.70;69.30;;;;;;6111867;23;114459;-84
2023/01/04 06:39:29;;;;;;;19.63;11.43;;;2.70;69.30;;;;;;6111474;23;115120;-84
2023/01/04 06:41:56;;;;;;;18.70;11.63;;;2.70;69.10;;;;;;6087226;23;114836;-83
2023/01/04 06:44:32;;;;;;;18.08;10.38;;;2.80;69.10;;;;;;6114561;22;114423;-84
2023/01/04 06:46:59;;;;;;;17.00;10.73;;;2.80;68.90;;;;;;6112835;23;114581;-84
2023/01/04 06:49:26;;;;;;;19.40;11.40;;;2.70;69.20;;;;;;6087455;23;114970;-84
2023/01/04 06:51:53;;;;;;;22.35;11.57;;;2.70;69.00;;;;;;6111227;23;114646;-84
2023/01/04 06:54:21;;;;;;;15.93;10.27;;;2.80;69.00;;;;;;6114227;23;114321;-83
2023/01/04 06:56:48;;;;;;;16.77;10.32;;;2.80;68.90;;;;;;6114277;23;114387;-84
2023/01/04 06:59:15;;;;;;;16.17;10.07;;;2.80;68.90;;;;;;6110179;23;117949;-83
2023/01/04 07:01:42;;;;;;;15.75;9.52;;;2.80;68.80;;;;;;6113275;23;114738;-84
2023/01/04 07:04:10;;;;;;;17.08;9.80;;;2.70;68.70;;;;;;6114297;23;114632;-84
2023/01/04 07:06:37;;;;;;;15.68;9.77;;;2.70;69.00;;;;;;6114269;23;114721;-83
2023/01/04 07:09:04;;;;;;;18.10;9.98;;;2.80;69.10;;;;;;6112494;23;115703;-84
2023/01/04 07:11:31;;;;;;;16.23;10.27;;;2.70;69.00;;;;;;6087142;23;114653;-84
2023/01/04 07:13:59;;;;;;;16.70;10.25;;;2.70;69.10;;;;;;6114285;23;114527;-84
2023/01/04 07:16:26;;;;;;;18.48;10.73;;;2.80;69.10;;;;;;6114268;23;114205;-84
2023/01/04 07:18:53;;;;;;;16.40;10.40;;;2.80;69.20;;;;;;6086598;23;116259;-84
2023/01/04 07:21:20;;;;;;;15.25;10.23;;;2.90;68.90;;;;;;6112441;23;115403;-85
2023/01/04 07:23:48;;;;;;;15.27;9.50;;;2.90;69.00;;;;;;6087252;23;114692;-84
2023/01/04 07:26:15;;;;;;;17.60;10.13;;;2.90;68.90;;;;;;6112646;23;114642;-83
2023/01/04 07:31:28;;;;;;;14.82;9.48;;;3.10;68.70;;;;;;6088165;23;118362;-84
2023/01/04 07:33:56;;;;;;;14.70;9.57;;;3.20;68.60;;;;;;6112005;22;114719;-83
2023/01/04 07:36:23;;;;;;;17.27;9.77;;;3.30;68.50;;;;;;6113959;23;114712;-82
2023/01/04 07:38:50;;;;;;;15.55;9.27;;;3.30;68.40;;;;;;6097260;23;115791;-83
2023/01/04 07:41:17;;;;;;;14.98;9.20;;;3.50;68.20;;;;;;6091231;23;118829;-83
2023/01/04 07:43:46;;;;;;;15.48;9.18;;;3.60;68.10;;;;;;6112715;22;115090;-84
2023/01/04 07:46:13;;;;;;;15.27;9.45;;;3.70;67.80;;;;;;6112499;23;114368;-84
2023/01/04 07:48:43;;;;;;;14.00;9.40;;;3.70;67.50;;;;;;6110541;22;114557;-83
2023/01/04 07:51:12;;;;;;;12.98;8.38;;;3.70;67.40;;;;;;6108766;23;115074;-84
2023/01/04 07:53:40;;;;;;;13.77;8.63;;;3.80;67.50;;;;;;6110669;23;114887;-83
2023/01/04 07:56:07;;;;;;;12.57;8.30;;;3.90;67.50;;;;;;6111918;23;114311;-84
2023/01/04 07:58:41;;;;;;;12.32;8.38;;;4.00;67.20;;;;;;6085613;23;118178;-83
2023/01/04 08:01:14;;;;;;;13.90;8.27;;;4.10;67.30;;;;;;6111013;22;114843;-82
2023/01/04 08:03:45;;;;;;;13.02;7.85;;;4.10;67.00;;;;;;6039922;23;116308;-82
2023/01/04 08:06:13;;;;;;;12.20;8.18;;;4.20;66.70;;;;;;6110579;23;114478;-83
2023/01/04 08:08:43;;;;;;;16.02;9.77;;;4.30;66.80;;;;;;6110818;23;115404;-82
2023/01/04 08:11:15;;;;;;;16.70;8.52;;;4.40;66.70;;;;;;6110448;23;115186;-82
2023/01/04 08:13:42;;;;;;;14.13;8.63;;;4.50;66.30;;;;;;6109896;23;115212;-82
2023/01/04 08:16:26;;;;;;;13.93;8.15;;;4.60;66.10;;;;;;6110362;23;114573;-83
2023/01/04 08:18:54;;;;;;;;;;;4.70;65.80;;;;;;6112182;22;115215;-82
2023/01/04 08:21:22;;;;;;;15.18;9.18;;;4.70;66.30;;;;;;6121724;23;114598;-84
2023/01/04 08:23:49;;;;;;;12.85;8.40;;;4.70;65.90;;;;;;6087798;23;115478;-83
2023/01/04 08:26:17;;;;;;;15.13;9.70;;;4.80;65.70;;;;;;6085677;23;114610;-83
2023/01/04 08:28:44;;;;;;;17.35;8.93;;;4.90;65.70;;;;;;6110442;23;115198;-86
2023/01/04 08:31:14;;;;;;;13.75;8.52;;;5.00;65.60;;;;;;6085018;23;114700;-84
2023/01/04 08:33:43;;;;;;;15.35;9.32;;;5.10;65.30;;;;;;6062255;23;114303;-84
2023/01/04 08:36:17;;;;;;;17.40;8.30;;;5.20;65.10;;;;;;6063013;23;114427;-84
2023/01/04 08:38:55;;;;;;;13.90;9.40;;;5.20;64.70;;;;;;6108318;23;115402;-85
2023/01/04 08:41:29;;;;;;;14.75;8.45;;;5.20;64.60;;;;;;6062661;23;114778;-84
2023/01/04 08:44:20;;;;;;;14.32;8.68;;;5.30;64.90;;;;;;6111063;23;114348;-84
2023/01/04 08:46:48;;;;;;;13.73;9.45;;;5.30;64.30;;;;;;6110462;23;115215;-85
2023/01/04 08:49:15;;;;;;;11.88;7.80;;;5.30;64.20;;;;;;6109467;23;115543;-85
2023/01/04 08:51:43;;;;;;;15.30;8.52;;;5.30;64.00;;;;;;6109214;23;115047;-84
2023/01/04 08:54:10;;;;;;;12.90;8.75;;;5.20;64.10;;;;;;6109688;23;115322;-84
2023/01/04 08:56:42;;;;;;;11.40;7.45;;;5.30;64.20;;;;;;6110752;23;114512;-84
2023/01/04 08:59:11;;;;;;;14.10;8.70;;;5.30;64.10;;;;;;6110505;23;115043;-85
2023/01/04 09:01:39;;;;;;;12.35;7.60;;;5.40;64.20;;;;;;6060488;23;115306;-85
2023/01/04 09:04:12;;;;;;;13.55;7.75;;;5.40;63.80;;;;;;6110008;23;114869;-85
2023/01/04 09:06:41;;;;;;;13.25;7.97;;;5.40;63.80;;;;;;6061614;23;114447;-84
2023/01/04 09:09:08;;;;;;;15.27;7.95;;;5.50;63.50;;;;;;6108556;23;114974;-84
2023/01/04 09:11:37;;;;;;;13.85;8.65;;;5.40;63.30;;;;;;6059921;23;114894;-84
2023/01/04 09:14:07;;;;;;;12.55;8.50;;;5.40;64.40;;;;;;6012607;23;114405;-84
2023/01/04 09:16:36;;;;;;;14.45;8.57;;;5.50;64.40;;;;;;6015818;23;116667;-84
2023/01/04 09:19:04;;;;;;;14.07;9.13;;;5.50;63.90;;;;;;6035308;23;115134;-84
2023/01/04 09:21:33;;;;;;;13.52;8.73;;;5.60;64.10;;;;;;6035139;23;118181;-84
2023/01/04 09:24:01;;;;;;;13.52;8.40;;;5.60;64.10;;;;;;6038811;23;115644;-84
2023/01/04 09:26:28;;;;;;;16.50;8.13;;;5.60;63.60;;;;;;6050125;23;115831;-84
2023/01/04 09:28:56;;;;;;;13.55;8.43;;;5.60;63.50;;;;;;6034890;23;118417;-84
2023/01/04 09:31:28;;;;;;;12.75;8.43;;;5.70;63.80;;;;;;6011533;23;117787;-83
2023/01/04 09:33:56;;;;;;;14.63;8.85;;;5.70;63.40;;;;;;6036986;23;114526;-84
2023/01/04 09:36:51;;;;;;;16.38;10.15;;;5.80;63.50;;;;;;6045928;23;114520;-83
2023/01/04 09:39:19;;;;;;;14.50;9.40;;;5.90;63.80;;;;;;6011998;23;118257;-83
2023/01/04 09:42:02;;;;;;;15.93;9.52;;;5.90;63.60;;;;;;6084102;23;117213;-84
2023/01/04 09:45:25;;;;;;;16.08;9.93;;;5.90;63.80;;;;;;6036076;23;114504;-83
2023/01/04 09:49:21;;;;;;;13.23;8.47;;;6.10;63.00;;;;;;6091034;23;114669;-84
2023/01/04 09:52:13;;;;;;;15.23;8.75;;;6.10;62.70;;;;;;6018668;23;115686;-83
2023/01/04 09:55:06;;;;;;;;;;;6.00;63.00;;;;;;5925473;23;118435;-83
2023/01/04 09:58:30;;;;;;;14.48;8.65;;;6.00;63.60;;;;;;5981866;23;114714;-84
2023/01/04 10:01:52;;;;;;;13.52;9.15;;;6.10;62.80;;;;;;5978611;23;114591;-83
2023/01/04 10:04:49;;;;;;;13.37;8.93;;;6.10;63.10;;;;;;5996281;23;115528;-84
2023/01/04 10:07:26;;;;;;;11.38;7.95;;;6.20;62.80;;;;;;5968184;23;118932;-84
2023/01/04 10:09:54;;;;;;;13.05;8.50;;;6.20;62.50;;;;;;6038855;23;114735;-83
2023/01/04 10:12:57;;;;;;;13.85;9.18;;;6.20;61.80;;;;;;6108848;23;116215;-84
2023/01/04 10:15:42;;;;;;;15.55;8.82;;;6.20;62.10;;;;;;6108038;23;115106;-84
2023/01/04 10:18:49;;;;;;;13.85;8.30;;;6.20;61.70;;;;;;6060083;23;115217;-85
2023/01/04 10:21:45;;;;;;;13.73;8.35;;;6.20;61.90;;;;;;6069767;23;114614;-86
2023/01/04 10:24:54;;;;;;;13.65;8.25;;;6.20;62.60;;;;;;6035661;23;114470;-84
2023/01/04 10:27:37;;;;;;;13.45;7.97;;;6.20;62.30;;;;;;6087300;23;115165;-84
2023/01/04 10:30:37;;;;;;;14.45;8.75;;;6.30;62.60;;;;;;6037336;23;117877;-85
2023/01/04 10:33:13;;;;;;;14.55;8.63;;;6.50;61.70;;;;;;6109252;23;114929;-85
2023/01/04 10:35:42;;;;;;;10.95;7.50;;;6.50;61.80;;;;;;6059882;23;114541;-84
2023/01/04 10:38:32;;;;;;;13.50;7.70;;;6.60;61.60;;;;;;6109284;23;115658;-85
2023/01/04 10:41:00;;;;;;;14.02;8.23;;;6.60;61.40;;;;;;6083261;23;115589;-84
2023/01/04 10:43:40;;;;;;;12.75;7.80;;;6.60;61.60;;;;;;6108720;23;115858;-84
2023/01/04 10:47:13;;;;;;;14.05;7.95;;;6.60;61.20;;;;;;6110387;23;114588;-83
2023/01/04 10:49:55;;;;;;;11.70;7.82;;;6.50;60.90;;;;;;6073082;23;114961;-83
2023/01/04 10:52:42;;;;;;;11.65;7.22;;;6.40;61.10;;;;;;6037195;23;114768;-83
2023/01/04 10:55:26;;;;;;;11.15;7.28;;;6.40;61.30;;;;;;6088191;23;114972;-84
2023/01/04 10:57:58;;;;;;;13.85;8.25;;;6.30;61.50;;;;;;6086610;23;114457;-84
2023/01/04 11:00:36;;;;;;;13.27;7.72;;;6.50;61.50;;;;;;6083422;23;115702;-83
2023/01/04 11:03:27;;;;;;;13.13;8.02;;;6.60;61.00;;;;;;6037131;23;118120;-84
2023/01/04 11:06:22;;;;;;;11.13;7.63;;;6.60;61.20;;;;;;6015379;23;114843;-84
2023/01/04 11:08:59;;;;;;;12.13;7.18;;;6.70;61.20;;;;;;6112090;23;114344;-83
2023/01/04 11:11:35;;;;;;;12.90;7.72;;;6.70;61.10;;;;;;6064725;23;117829;-83
2023/01/04 11:14:02;;;;;;;12.75;8.38;;;6.80;60.60;;;;;;6102379;23;114567;-84
2023/01/04 11:16:30;;;;;;;13.73;7.93;;;6.90;60.60;;;;;;5999791;23;114458;-84
2023/01/04 11:18:57;;;;;;;13.60;6.57;;;7.00;60.60;;;;;;6111215;23;114433;-84
2023/01/04 11:21:27;;;;;;;13.98;6.40;;;7.10;59.90;;;;;;6108994;23;115054;-84
2023/01/04 11:23:59;;;;;;;12.88;6.53;;;7.20;59.90;;;;;;6084923;23;115707;-84
2023/01/04 11:26:46;;;;;;;11.18;6.60;;;7.20;59.90;;;;;;6091001;23;114518;-82
2023/01/04 11:29:34;;;;;;;10.32;5.47;;;7.40;59.70;;;;;;6062003;23;114377;-84
2023/01/04 11:32:18;;;;;;;7.88;4.63;;;7.50;59.10;;;;;;6109526;23;116289;-84
2023/01/04 11:34:51;;;;;;;6.97;3.88;;;7.60;58.40;;;;;;6109477;23;114936;-84
2023/01/04 11:37:38;;;;;;;6.82;2.75;;;7.70;58.00;;;;;;6014597;23;114387;-85
2023/01/04 11:40:23;;;;;;;6.10;2.60;;;7.70;56.80;;;;;;6038835;23;114705;-84
2023/01/04 11:43:17;;;;;;;7.93;4.57;;;7.80;56.40;;;;;;6060640;23;115071;-85
2023/01/04 11:46:16;;;;;;;4.43;2.35;;;7.90;56.50;;;;;;6109375;23;115013;-84
2023/01/04 11:48:45;;;;;;;4.85;2.20;;;7.90;56.10;;;;;;6111130;23;114471;-84
2023/01/04 11:51:35;;;;;;;8.20;4.60;;;7.90;56.10;;;;;;6012574;23;114570;-83
2023/01/04 11:54:20;;;;;;;12.10;5.32;;;7.90;55.90;;;;;;6108765;23;115185;-84
2023/01/04 11:57:09;;;;;;;13.85;6.50;;;8.00;55.90;;;;;;6059952;23;117476;-83
2023/01/04 11:59:38;;;;;;;11.40;6.80;;;8.00;56.10;;;;;;6109587;23;114487;-83
2023/01/04 12:02:23;;;;;;;11.57;6.53;;;7.90;56.60;;;;;;6037133;23;114435;-84
2023/01/04 12:05:21;;;;;;;15.93;7.72;;;7.90;56.60;;;;;;6108761;23;115655;-84
2023/01/04 12:07:56;;;;;;;16.90;7.50;;;7.90;57.20;;;;;;6037934;23;118621;-84
2023/01/04 12:10:25;;;;;;;11.32;7.05;;;7.80;57.10;;;;;;6035083;23;114634;-84
2023/01/04 12:12:59;;;;;;;10.65;6.50;;;7.80;57.10;;;;;;6061679;23;114882;-83
2023/01/04 12:15:50;;;;;;;10.13;6.15;;;7.80;57.10;;;;;;6082935;23;115077;-83
2023/01/04 12:18:25;;;;;;;10.85;6.10;;;7.80;57.20;;;;;;6060902;23;118533;-83
2023/01/04 12:20:52;;;;;;;9.75;6.30;;;7.80;57.00;;;;;;6108829;23;115424;-84
2023/01/04 12:23:19;;;;;;;11.70;6.45;;;7.80;57.20;;;;;;6111359;22;114598;-83
2023/01/04 12:25:50;;;;;;;10.40;5.95;;;7.90;57.20;;;;;;6108266;23;115062;-83
2023/01/04 12:28:38;;;;;;;11.88;5.70;;;8.00;57.20;;;;;;6036155;23;117831;-83
2023/01/04 12:31:18;;;;;;;8.48;5.32;;;8.10;56.90;;;;;;6038118;23;114535;-84
2023/01/04 12:33:59;;;;;;;8.65;5.30;;;8.10;56.50;;;;;;6086525;23;115196;-84
2023/01/04 12:36:38;;;;;;;9.38;5.45;;;8.20;56.20;;;;;;6036427;23;114976;-84
2023/01/04 12:39:14;;;;;;;11.68;5.88;;;8.20;56.00;;;;;;6108596;23;118012;-84
2023/01/04 12:41:59;;;;;;;14.27;7.47;;;8.20;56.30;;;;;;6083913;23;115787;-84
2023/01/04 12:44:39;;;;;;;13.60;7.53;;;8.20;56.30;;;;;;6110311;23;114320;-85
2023/01/04 12:50:14;;;;;;;15.85;7.18;;;8.40;55.80;;;;;;6083109;23;118898;-82
2023/01/04 12:57:15;;;;;;;9.45;4.78;;;8.50;54.90;;;;;;6098547;23;114424;-84
2023/01/04 13:00:02;;;;;;;9.40;2.92;;;8.50;54.80;;;;;;6121791;23;115485;-83
2023/01/04 13:02:34;;;;;;;6.80;2.47;;;8.50;53.70;;;;;;6121291;23;114366;-83
2023/01/04 13:05:35;;;;;;;3.85;1.85;;;8.60;53.70;;;;;;6038563;23;117542;-83
2023/01/04 13:08:22;;;;;;;5.28;2.50;;;8.50;53.40;;;;;;6076240;23;114778;-84
2023/01/04 13:10:54;;;;;;;6.07;2.47;;;8.60;53.70;;;;;;6108592;23;114997;-83
2023/01/04 13:13:41;;;;;;;8.77;2.63;;;8.50;53.60;;;;;;6061126;23;118606;-84
2023/01/04 13:16:25;;;;;;;4.38;2.40;;;8.50;53.20;;;;;;6060990;23;114896;-83
2023/01/04 13:18:57;;;;;;;6.00;2.50;;;8.50;53.40;;;;;;6110634;23;115201;-84
2023/01/04 13:21:42;;;;;;;5.10;2.72;;;8.50;53.40;;;;;;5988838;23;117877;-83
2023/01/04 13:24:33;;;;;;;4.95;2.55;;;8.50;53.50;;;;;;6084879;23;116265;-85
2023/01/04 13:27:09;;;;;;;4.85;2.85;;;8.50;53.70;;;;;;6040435;23;114384;-84
2023/01/04 13:29:36;;;;;;;6.25;2.60;;;8.40;54.00;;;;;;6062687;23;114841;-83
2023/01/04 13:32:20;;;;;;;6.28;3.65;;;8.30;53.90;;;;;;6032448;23;118302;-84
2023/01/04 13:35:01;;;;;;;4.22;2.65;;;8.30;54.10;;;;;;6062837;23;116799;-83
2023/01/04 13:37:51;;;;;;;4.50;2.50;;;8.30;54.30;;;;;;6064204;23;114720;-83
2023/01/04 13:40:25;;;;;;;3.97;2.45;;;8.30;54.60;;;;;;6036127;23;114565;-84
2023/01/04 13:43:25;;;;;;;4.18;2.50;;;8.30;54.80;;;;;;6108736;23;117686;-84
2023/01/04 13:46:17;;;;;;;4.38;2.67;;;8.20;54.90;;;;;;6108831;23;114677;-84
2023/01/04 13:48:47;;;;;;;4.25;2.00;;;8.20;54.90;;;;;;6109904;23;114482;-84
2023/01/04 13:51:30;;;;;;;5.15;2.25;;;8.20;54.80;;;;;;6060898;23;114834;-84
2023/01/04 13:54:17;;;;;;;4.50;1.92;;;8.20;54.50;;;;;;6109143;23;115559;-85
2023/01/04 13:56:44;;;;;;;5.72;2.47;;;8.20;54.60;;;;;;6084697;23;114876;-83
2023/01/04 13:59:21;;;;;;;4.35;2.10;;;8.20;54.80;;;;;;6111681;22;114328;-84
2023/01/04 14:01:48;;;;;;;5.95;2.30;;;8.20;54.90;;;;;;6085523;23;114786;-83
2023/01/04 14:04:27;;;;;;;5.07;2.38;;;8.10;55.20;;;;;;6059338;23;115368;-84
2023/01/04 14:06:57;;;;;;;4.68;2.55;;;8.10;55.10;;;;;;6084644;23;115302;-84
2023/01/04 14:09:27;;;;;;;5.15;3.05;;;8.10;55.50;;;;;;6085867;23;114511;-84
2023/01/04 14:11:58;;;;;;;5.78;2.90;;;8.10;55.50;;;;;;6108949;23;115507;-84
2023/01/04 14:14:57;;;;;;;4.60;3.17;;;8.10;55.70;;;;;;6062531;23;115291;-85
2023/01/04 14:17:36;;;;;;;5.03;2.63;;;8.20;55.70;;;;;;6084955;23;114579;-84
2023/01/04 14:20:11;;;;;;;5.95;2.88;;;8.10;55.60;;;;;;6085682;23;114840;-83